Filia Joy — 3FIN9 — position and weather

sailwx.info

Track history (hours):
 
Tides and Currents Weather Stations Pressure Air Temp Water Temp Dewpoint Dewpoint Depression Visibility Wind Speed Wind Dir Waves Ship Positions

Filia Joy

Last reported at 2014-Jul-10 15:06 UTC. Time now 2014-Jul-24 13:03 UTC.
Position N 30°40' E 032°20'.
Warning: this ship's position is 13 days out of date.

Length 190 m; draft 10.2 m.

Type: Cargo ship. MMSI: 371999000.

Date/timePositionNaut miles runAvg speedWind from/ knotsBaromVisibWave heightAir tempDewpointWater temp
2014-Jul-10 15:06N 30°40' E 032°20'42 3.6
2014-Jul-10 03:34N 31°22' E 032°20'0 0.2
2014-Jul-10 02:30N 31°22' E 032°20'7 3.0
2014-Jul-10 00:12N 31°28' E 032°16'2113.0
2014-Jul-09 22:33N 31°44' E 031°59'1313.2
2014-Jul-09 21:33N 31°54' E 031°48'1612.9
2014-Jul-09 20:21N 32°06' E 031°36'1112.9
2014-Jul-09 19:29N 32°13' E 031°27'1213.2
2014-Jul-09 18:33N 32°22' E 031°17'1413.6
2014-Jul-09 17:30N 32°33' E 031°06'1313.2
2014-Jul-09 16:30N 32°43' E 030°55'1813.1
2014-Jul-09 15:08N 32°56' E 030°41'813.1
2014-Jul-09 14:32N 33°02' E 030°35'2713.5
2014-Jul-09 12:31N 33°22' E 030°13'23313.4
2014-Jul-08 19:08N 36°14' E 027°02'813.1
2014-Jul-08 18:32N 36°20' E 026°55'2613.0
2014-Jul-08 16:32N 36°39' E 026°34'1313.4
2014-Jul-08 15:33N 36°49' E 026°23'1413.5
2014-Jul-08 14:33N 36°59' E 026°12'1313.2
2014-Jul-08 13:33N 37°11' E 026°04'1313.1
2014-Jul-08 12:33N 37°23' E 025°57'1312.6
2014-Jul-08 11:33N 37°34' E 025°50'1413.0
2014-Jul-08 10:30N 37°46' E 025°43'1212.8
2014-Jul-08 09:33N 37°58' E 025°40'1313.0
2014-Jul-08 08:33N 38°11' E 025°41'1313.0
2014-Jul-08 07:33N 38°24' E 025°41'1313.2
2014-Jul-08 06:33N 38°38' E 025°42'1313.2
2014-Jul-08 05:33N 38°51' E 025°42'1313.3
2014-Jul-08 04:33N 39°04' E 025°43'3912.9
2014-Jul-08 01:33N 39°43' E 025°43'1512.9
2014-Jul-08 00:23N 39°56' E 025°53'2712.7
2014-Jul-07 22:14N 40°10' E 026°23'1312.1
2014-Jul-07 21:08N 40°19' E 026°36'912.4
2014-Jul-07 20:27N 40°25' E 026°43'122 4.4
2014-Jul-06 16:33N 41°25' E 029°04'27310.8
2014-Jul-05 15:15N 43°24' E 034°37'4712.4
2014-Jul-05 11:27N 43°46' E 035°35'  
2014-Jul-01 15:26N 44°35' E 037°54'0 0.0
2014-Jul-01 14:32N 44°35' E 037°54'0 0.0
2014-Jul-01 13:29N 44°35' E 037°54'0 0.0
2014-Jul-01 12:32N 44°35' E 037°54'88 4.6
2014-Jun-30 17:33N 44°12' E 035°56'1111.1
2014-Jun-30 16:33N 44°13' E 035°41'1110.7
2014-Jun-30 15:33N 44°14' E 035°26'  
Track history (hours):
 
Tides and Currents Weather Stations Pressure Air Temp Water Temp Dewpoint Dewpoint Depression Visibility Wind Speed Wind Dir Waves Ship Positions

Filia Joy

Last reported at 2014-Jul-10 15:06 UTC. Time now 2014-Jul-24 13:03 UTC.
Position N 30°40' E 032°20'.
Warning: this ship's position is 13 days out of date.

Length 190 m; draft 10.2 m.

Type: Cargo ship. MMSI: 371999000.

Date/timePositionNaut miles runAvg speedWind from/ knotsBaromVisibWave heightAir tempDewpointWater temp
2014-Jul-10 15:06N 30°40' E 032°20'42 3.6
2014-Jul-10 03:34N 31°22' E 032°20'0 0.2
2014-Jul-10 02:30N 31°22' E 032°20'7 3.0
2014-Jul-10 00:12N 31°28' E 032°16'2113.0
2014-Jul-09 22:33N 31°44' E 031°59'1313.2
2014-Jul-09 21:33N 31°54' E 031°48'1612.9
2014-Jul-09 20:21N 32°06' E 031°36'1112.9
2014-Jul-09 19:29N 32°13' E 031°27'1213.2
2014-Jul-09 18:33N 32°22' E 031°17'1413.6
2014-Jul-09 17:30N 32°33' E 031°06'1313.2
2014-Jul-09 16:30N 32°43' E 030°55'1813.1
2014-Jul-09 15:08N 32°56' E 030°41'813.1
2014-Jul-09 14:32N 33°02' E 030°35'2713.5
2014-Jul-09 12:31N 33°22' E 030°13'23313.4
2014-Jul-08 19:08N 36°14' E 027°02'813.1
2014-Jul-08 18:32N 36°20' E 026°55'2613.0
2014-Jul-08 16:32N 36°39' E 026°34'1313.4
2014-Jul-08 15:33N 36°49' E 026°23'1413.5
2014-Jul-08 14:33N 36°59' E 026°12'1313.2
2014-Jul-08 13:33N 37°11' E 026°04'1313.1
2014-Jul-08 12:33N 37°23' E 025°57'1312.6
2014-Jul-08 11:33N 37°34' E 025°50'1413.0
2014-Jul-08 10:30N 37°46' E 025°43'1212.8
2014-Jul-08 09:33N 37°58' E 025°40'1313.0
2014-Jul-08 08:33N 38°11' E 025°41'1313.0
2014-Jul-08 07:33N 38°24' E 025°41'1313.2
2014-Jul-08 06:33N 38°38' E 025°42'1313.2
2014-Jul-08 05:33N 38°51' E 025°42'1313.3
2014-Jul-08 04:33N 39°04' E 025°43'3912.9
2014-Jul-08 01:33N 39°43' E 025°43'1512.9
2014-Jul-08 00:23N 39°56' E 025°53'2712.7
2014-Jul-07 22:14N 40°10' E 026°23'1312.1
2014-Jul-07 21:08N 40°19' E 026°36'912.4
2014-Jul-07 20:27N 40°25' E 026°43'122 4.4
2014-Jul-06 16:33N 41°25' E 029°04'27310.8
2014-Jul-05 15:15N 43°24' E 034°37'4712.4
2014-Jul-05 11:27N 43°46' E 035°35'  
2014-Jul-01 15:26N 44°35' E 037°54'0 0.0
2014-Jul-01 14:32N 44°35' E 037°54'0 0.0
2014-Jul-01 13:29N 44°35' E 037°54'0 0.0
2014-Jul-01 12:32N 44°35' E 037°54'88 4.6
2014-Jun-30 17:33N 44°12' E 035°56'1111.1
2014-Jun-30 16:33N 44°13' E 035°41'1110.7
2014-Jun-30 15:33N 44°14' E 035°26'  

Dump ship's entire track history